Time;durP1;ratioP1;P1;durP2;ratioP2;P2;SDS_P1;SDS_P2;PMS_P1;PMS_P2;Temp;Humidity;BMP_temperature;BMP_pressure;BME280_temperature;BME280_humidity;BME280_pressure;Samples;Min_cycle;Max_cycle;Signal;HPM_P1;HPM_P2
2022/08/08 00:00:13;;;;;;;8.65;3.63;;;;;;;18.02;34.78;101718.41;5036548;28;20065;-64
2022/08/08 00:03:36;;;;;;;5.20;3.28;;;;;;;17.87;35.23;101723.81;5035789;28;20041;-65
2022/08/08 00:06:25;;;;;;;7.55;3.38;;;;;;;17.82;35.12;101720.78;5030187;28;20045;-65
2022/08/08 00:09:19;;;;;;;6.68;3.03;;;;;;;17.82;35.32;101721.66;5035126;28;20455;-64
2022/08/08 00:11:56;;;;;;;7.20;3.67;;;;;;;17.85;34.97;101720.44;5037024;28;20072;-64
2022/08/08 00:15:07;;;;;;;7.82;2.85;;;;;;;17.77;35.10;101717.81;5036060;28;20088;-65
2022/08/08 00:17:43;;;;;;;6.50;3.40;;;;;;;17.84;35.26;101724.19;5035763;28;20505;-65
2022/08/08 00:20:45;;;;;;;8.07;3.50;;;;;;;17.85;35.58;101723.16;5034843;28;20405;-64
2022/08/08 00:23:50;;;;;;;7.78;3.47;;;;;;;17.87;35.74;101729.25;5035370;28;20512;-64
2022/08/08 00:26:24;;;;;;;6.93;2.95;;;;;;;17.83;35.53;101722.50;5033717;28;20049;-64
2022/08/08 00:29:05;;;;;;;4.78;3.20;;;;;;;17.80;35.63;101722.88;5034571;28;20128;-64
2022/08/08 00:31:39;;;;;;;4.82;2.70;;;;;;;17.80;35.78;101718.28;5034854;28;20060;-64
2022/08/08 00:37:59;;;;;;;8.98;3.63;;;;;;;17.78;35.50;101723.03;5034117;28;20075;-64
2022/08/08 00:40:27;;;;;;;8.18;3.47;;;;;;;17.76;35.59;101724.25;5034359;28;20086;-64
2022/08/08 00:43:42;;;;;;;6.90;3.38;;;;;;;17.70;35.76;101727.72;5034257;28;20048;-64
2022/08/08 00:46:55;;;;;;;6.75;3.10;;;;;;;17.46;36.13;101734.19;5034521;28;20536;-64
2022/08/08 00:50:06;;;;;;;15.98;3.72;;;;;;;17.25;36.16;101730.22;5034319;28;20482;-64
2022/08/08 00:52:55;;;;;;;8.50;3.72;;;;;;;17.16;36.36;101730.44;5033671;28;20049;-64
2022/08/08 00:56:01;;;;;;;9.43;3.42;;;;;;;17.19;36.45;101730.09;5034162;28;20052;-64
2022/08/08 00:59:06;;;;;;;9.85;3.38;;;;;;;17.23;35.96;101726.81;5033390;28;20081;-64
2022/08/08 01:02:02;;;;;;;11.95;4.32;;;;;;;17.10;36.78;101727.44;5022636;28;20060;-64
2022/08/08 01:04:59;;;;;;;8.77;3.10;;;;;;;17.20;36.40;101726.34;5003786;28;20541;-64
2022/08/08 01:07:55;;;;;;;10.50;3.58;;;;;;;16.96;36.70;101735.50;4992761;28;20050;-65
2022/08/08 01:10:43;;;;;;;13.63;3.40;;;;;;;17.06;36.63;101726.13;4987413;28;20038;-64
2022/08/08 01:13:50;;;;;;;11.10;3.83;;;;;;;17.09;36.52;101725.75;4990484;28;20050;-64
2022/08/08 01:16:45;;;;;;;6.00;3.28;;;;;;;17.12;36.66;101725.38;4990972;28;20478;-64
2022/08/08 01:19:53;;;;;;;9.13;3.67;;;;;;;17.25;36.71;101729.38;4991244;28;20042;-64
2022/08/08 01:22:53;;;;;;;10.15;3.60;;;;;;;17.16;36.54;101719.59;4980257;28;20038;-64
2022/08/08 01:25:58;;;;;;;7.32;3.40;;;;;;;17.06;36.51;101722.53;4990975;28;20042;-64
2022/08/08 01:28:58;;;;;;;11.32;3.47;;;;;;;17.18;36.72;101723.81;4990516;28;20046;-64
2022/08/08 01:31:31;;;;;;;7.72;3.30;;;;;;;17.10;36.40;101722.00;4991450;28;20113;-64
2022/08/08 01:34:56;;;;;;;11.32;3.30;;;;;;;17.13;36.15;101726.25;4991551;28;20053;-64
2022/08/08 01:37:41;;;;;;;7.90;3.08;;;;;;;17.11;36.76;101720.97;4978513;28;20074;-64
2022/08/08 01:40:46;;;;;;;7.35;3.08;;;;;;;17.16;36.80;101723.16;5033345;28;20046;-64
2022/08/08 01:43:15;;;;;;;10.35;3.60;;;;;;;17.12;36.83;101714.53;5029170;28;20085;-64
2022/08/08 01:45:50;;;;;;;8.38;3.40;;;;;;;17.05;37.13;101716.28;5032264;28;20129;-64
2022/08/08 01:48:46;;;;;;;6.00;3.22;;;;;;;17.07;37.18;101718.81;5032802;28;20051;-65
2022/08/08 01:51:19;;;;;;;7.65;3.00;;;;;;;17.07;37.34;101713.41;5032270;28;22108;-65
2022/08/08 01:54:23;;;;;;;5.85;3.28;;;;;;;17.06;37.43;101704.44;5032045;28;20053;-64
2022/08/08 01:57:25;;;;;;;9.85;2.85;;;;;;;17.04;37.64;101700.19;5026366;28;20511;-64
2022/08/08 02:00:18;;;;;;;7.25;2.97;;;;;;;17.10;37.10;101696.78;5031258;28;20056;-65
2022/08/08 02:02:56;;;;;;;5.10;3.05;;;;;;;17.19;36.84;101709.22;5031601;28;20041;-64
2022/08/08 02:05:37;;;;;;;9.32;3.30;;;;;;;17.13;37.19;101699.13;5030857;28;20464;-64
2022/08/08 02:09:02;;;;;;;9.35;3.22;;;;;;;17.14;37.60;101700.81;5032586;28;20052;-65
2022/08/08 02:11:44;;;;;;;8.88;3.35;;;;;;;17.11;37.33;101702.00;5031221;28;20037;-65
2022/08/08 02:14:41;;;;;;;6.95;3.05;;;;;;;17.16;37.49;101703.31;5032516;28;20077;-64
2022/08/08 02:17:52;;;;;;;5.07;2.42;;;;;;;17.04;37.37;101701.03;5030976;28;20478;-65
2022/08/08 02:20:30;;;;;;;8.73;2.97;;;;;;;17.00;37.54;101702.44;5031086;28;20077;-64
2022/08/08 02:23:26;;;;;;;7.97;3.38;;;;;;;16.73;37.61;101709.19;5030953;28;20050;-65
2022/08/08 02:26:08;;;;;;;13.20;3.13;;;;;;;16.80;37.56;101703.91;5032640;28;20041;-63
2022/08/08 02:28:57;;;;;;;9.13;3.45;;;;;;;16.78;37.83;101714.06;5031746;28;20056;-65
2022/08/08 02:31:50;;;;;;;8.10;3.70;;;;;;;16.61;38.08;101713.31;5031044;28;20041;-64
2022/08/08 02:34:40;;;;;;;6.78;3.15;;;;;;;16.27;38.45;101714.41;5032709;28;20055;-64
2022/08/08 02:37:53;;;;;;;9.63;3.22;;;;;;;16.36;37.93;101717.91;5032059;28;20103;-64
2022/08/08 02:40:51;;;;;;;9.38;3.67;;;;;;;16.43;38.13;101718.91;5030306;28;20439;-64
2022/08/08 02:43:45;;;;;;;8.10;3.53;;;;;;;16.41;38.16;101716.38;5031397;28;20164;-64
2022/08/08 02:46:50;;;;;;;6.68;3.38;;;;;;;16.35;38.00;101710.81;5030612;28;20045;-64
2022/08/08 02:49:30;;;;;;;4.13;2.67;;;;;;;16.21;38.09;101719.66;5031550;28;20049;-64
2022/08/08 02:52:41;;;;;;;9.00;3.30;;;;;;;16.22;37.94;101715.94;5031569;28;20049;-64
2022/08/08 02:55:23;;;;;;;7.32;3.53;;;;;;;16.13;38.29;101717.84;5026634;28;20072;-64
2022/08/08 02:58:27;;;;;;;10.02;3.40;;;;;;;16.24;38.27;101714.75;5032152;28;20125;-64
2022/08/08 03:01:17;;;;;;;11.98;3.38;;;;;;;16.14;38.33;101711.41;5031385;28;20469;-64
2022/08/08 03:04:37;;;;;;;10.98;3.10;;;;;;;16.11;38.34;101720.69;5031401;28;20469;-64
2022/08/08 03:07:33;;;;;;;9.25;3.53;;;;;;;16.11;38.11;101722.56;5029744;28;20041;-64
2022/08/08 03:10:46;;;;;;;10.77;3.17;;;;;;;15.99;38.41;101721.25;5030152;28;20096;-64
2022/08/08 03:13:47;;;;;;;6.47;3.13;;;;;;;16.10;38.15;101729.00;5031213;28;20049;-64
2022/08/08 03:16:36;;;;;;;9.88;3.45;;;;;;;15.98;38.41;101727.66;5030758;28;20049;-64
2022/08/08 03:19:40;;;;;;;9.27;2.92;;;;;;;16.08;38.34;101729.16;5031150;28;20108;-64
2022/08/08 03:22:16;;;;;;;6.15;2.70;;;;;;;16.10;38.19;101724.44;5029565;28;20045;-64
2022/08/08 03:25:05;;;;;;;8.50;3.35;;;;;;;16.13;38.31;101728.66;5026250;28;20044;-64
2022/08/08 03:27:55;;;;;;;5.15;2.75;;;;;;;16.15;38.32;101730.16;5040857;28;20416;-64
2022/08/08 03:30:23;;;;;;;7.35;3.05;;;;;;;16.16;38.40;101722.91;5030232;28;20064;-63
2022/08/08 03:35:56;;;;;;;7.20;3.22;;;;;;;15.88;38.86;101730.53;5029925;28;20053;-64
2022/08/08 03:38:25;;;;;;;8.68;2.92;;;;;;;16.02;38.75;101724.47;5031183;28;20065;-64
2022/08/08 03:41:11;;;;;;;8.57;2.90;;;;;;;15.87;38.81;101726.16;5030182;28;20409;-64
2022/08/08 03:43:58;;;;;;;5.18;2.70;;;;;;;15.71;39.38;101730.56;5024589;28;20049;-64
2022/08/08 03:46:25;;;;;;;8.10;2.85;;;;;;;15.60;39.64;101740.84;5041860;28;20041;-64
2022/08/08 03:49:01;;;;;;;6.13;3.10;;;;;;;15.48;39.93;101737.63;5031520;28;20128;-64
2022/08/08 03:51:54;;;;;;;9.60;2.88;;;;;;;15.52;39.64;101735.44;5024418;28;20056;-64
2022/08/08 03:54:23;;;;;;;7.57;3.22;;;;;;;15.40;40.10;101743.03;5030945;28;20132;-64
2022/08/08 03:57:14;;;;;;;13.95;3.72;;;;;;;15.31;40.21;101741.31;5029250;28;20053;-63
2022/08/08 04:00:07;;;;;;;12.38;3.60;;;;;;;15.31;40.18;101747.56;5020791;28;20477;-64
2022/08/08 04:02:38;;;;;;;9.15;3.53;;;;;;;15.40;40.07;101746.59;5029522;28;20041;-64
2022/08/08 04:05:18;;;;;;;7.55;2.85;;;;;;;15.42;39.90;101746.41;5030850;28;20137;-64
2022/08/08 04:07:55;;;;;;;8.00;2.95;;;;;;;15.50;39.67;101746.44;5031545;28;20080;-64
2022/08/08 04:10:23;;;;;;;9.60;2.95;;;;;;;15.63;39.27;101754.06;5030921;28;20045;-64
2022/08/08 04:12:50;;;;;;;9.05;2.95;;;;;;;15.65;39.38;101747.47;5022428;28;20045;-63
2022/08/08 04:15:16;;;;;;;9.25;3.10;;;;;;;15.74;39.35;101755.56;5043459;28;20060;-64
2022/08/08 04:17:48;;;;;;;9.15;3.00;;;;;;;15.67;39.46;101752.69;5026223;28;20101;-67
2022/08/08 04:20:24;;;;;;;10.60;3.58;;;;;;;15.67;39.31;101752.69;5030151;28;20045;-66
2022/08/08 04:22:54;;;;;;;9.95;3.30;;;;;;;15.73;39.55;101759.31;5029744;28;20092;-66
2022/08/08 04:25:23;;;;;;;10.98;3.22;;;;;;;15.73;39.34;101753.91;5028957;28;20049;-66
2022/08/08 04:27:58;;;;;;;8.75;2.92;;;;;;;15.64;39.45;101751.19;5029457;28;20099;-66
2022/08/08 04:30:46;;;;;;;6.90;3.00;;;;;;;15.45;40.05;101762.28;5028660;28;20045;-67
2022/08/08 04:33:13;;;;;;;8.57;3.15;;;;;;;15.57;39.83;101771.78;5027703;28;20045;-65
2022/08/08 04:35:41;;;;;;;11.15;3.42;;;;;;;15.65;39.70;101771.81;5029352;28;20444;-65
2022/08/08 04:38:17;;;;;;;8.73;3.42;;;;;;;15.53;39.84;101767.69;5030076;28;20563;-66
2022/08/08 04:40:48;;;;;;;5.60;2.88;;;;;;;15.56;39.97;101770.06;5030581;28;20045;-66
2022/08/08 04:43:21;;;;;;;11.98;3.10;;;;;;;15.63;39.96;101781.94;5032437;28;20054;-66
2022/08/08 04:46:08;;;;;;;12.50;3.50;;;;;;;15.56;39.94;101772.78;5033551;28;20409;-66
2022/08/08 04:48:34;;;;;;;8.98;3.22;;;;;;;15.53;39.98;101775.81;5039807;28;20055;-66
2022/08/08 04:51:01;;;;;;;8.25;3.33;;;;;;;15.68;39.87;101785.00;5033054;28;20397;-66
2022/08/08 04:53:28;;;;;;;9.13;3.15;;;;;;;15.65;39.88;101785.34;5033654;28;20099;-65
2022/08/08 04:56:16;;;;;;;13.13;3.40;;;;;;;15.75;39.66;101777.06;5030021;28;20084;-65
2022/08/08 04:58:43;;;;;;;14.18;4.15;;;;;;;15.75;39.81;101778.94;5032928;28;20057;-65
2022/08/08 05:01:13;;;;;;;18.67;3.67;;;;;;;15.64;40.11;101786.38;5028218;28;20560;-66
2022/08/08 05:03:40;;;;;;;18.45;3.78;;;;;;;15.63;40.09;101781.94;5031747;28;20289;-65
2022/08/08 05:06:27;;;;;;;13.65;3.45;;;;;;;15.70;40.16;101782.97;5032487;28;20053;-65
2022/08/08 05:08:54;;;;;;;13.07;3.38;;;;;;;15.71;39.92;101781.97;5032040;28;20050;-65
2022/08/08 05:11:27;;;;;;;16.05;3.63;;;;;;;15.88;39.83;101785.53;5033212;28;20061;-64
2022/08/08 05:14:04;;;;;;;11.38;3.25;;;;;;;15.96;39.93;101781.97;5033990;28;20049;-64
2022/08/08 05:16:32;;;;;;;10.00;3.15;;;;;;;15.77;40.15;101785.84;5033882;28;20072;-65
2022/08/08 05:19:19;;;;;;;5.13;2.90;;;;;;;15.77;40.09;101785.00;5032497;28;20057;-64
2022/08/08 05:22:07;;;;;;;7.47;3.25;;;;;;;16.00;39.77;101783.31;5033661;28;20147;-65
2022/08/08 05:24:36;;;;;;;11.07;3.17;;;;;;;16.05;39.60;101780.94;5033891;28;20050;-65
2022/08/08 05:27:05;;;;;;;7.80;2.92;;;;;;;16.05;39.70;101780.94;5029460;28;20053;-65
2022/08/08 05:29:32;;;;;;;7.93;2.83;;;;;;;15.95;39.86;101775.72;5034000;28;20060;-65
2022/08/08 05:32:02;;;;;;;8.02;3.47;;;;;;;16.06;39.71;101781.81;5033273;28;20049;-65
2022/08/08 05:34:40;;;;;;;8.30;3.38;;;;;;;16.31;39.73;101785.31;5033376;28;20064;-65
2022/08/08 05:37:11;;;;;;;9.15;3.58;;;;;;;16.37;39.64;101787.34;5032142;28;20052;-65
2022/08/08 05:39:55;;;;;;;13.73;3.53;;;;;;;16.38;39.30;101783.59;5031422;28;20045;-65
2022/08/08 05:42:29;;;;;;;10.98;3.33;;;;;;;16.49;39.17;101783.22;5032385;28;20049;-65
2022/08/08 05:45:01;;;;;;;10.60;3.20;;;;;;;16.41;39.07;101792.22;5033081;28;21321;-65
2022/08/08 05:47:48;;;;;;;13.10;3.80;;;;;;;16.47;39.42;101788.00;5031617;28;20048;-65
2022/08/08 05:50:29;;;;;;;9.05;3.20;;;;;;;16.63;39.17;101790.66;5031897;28;20075;-65
2022/08/08 05:52:59;;;;;;;11.23;3.55;;;;;;;16.65;39.43;101799.47;5031385;28;20072;-65
2022/08/08 05:55:47;;;;;;;11.15;3.28;;;;;;;16.66;39.32;101790.31;5025031;28;20048;-65
2022/08/08 05:58:38;;;;;;;8.77;3.20;;;;;;;16.72;38.90;101794.22;5031969;28;20049;-65
2022/08/08 06:01:25;;;;;;;13.55;3.90;;;;;;;16.78;39.29;101798.94;5032917;28;20049;-65
2022/08/08 06:04:12;;;;;;;14.50;4.18;;;;;;;16.89;39.31;101798.53;5032857;28;20050;-65
2022/08/08 06:06:52;;;;;;;14.38;3.75;;;;;;;17.00;38.90;101794.59;5032166;28;20041;-65
2022/08/08 06:09:27;;;;;;;5.65;3.13;;;;;;;17.02;38.89;101799.81;5032856;28;20045;-65
2022/08/08 06:12:14;;;;;;;16.45;4.15;;;;;;;17.09;38.74;101792.66;5031406;28;20061;-65
2022/08/08 06:14:56;;;;;;;9.93;3.28;;;;;;;17.25;38.74;101800.72;5027112;28;20470;-65
2022/08/08 06:17:25;;;;;;;11.40;4.10;;;;;;;17.34;38.58;101810.56;5032191;28;20486;-65
2022/08/08 06:20:12;;;;;;;23.52;4.80;;;;;;;17.38;38.66;101805.59;5032024;28;20076;-65
2022/08/08 06:22:42;;;;;;;59.70;5.75;;;;;;;17.49;38.20;101799.78;5031135;28;20049;-65
2022/08/08 06:25:08;;;;;;;15.88;3.40;;;;;;;17.49;38.24;101807.91;5036375;28;20477;-65
2022/08/08 06:27:45;;;;;;;11.65;3.63;;;;;;;17.55;37.99;101811.78;5032110;28;20111;-65
2022/08/08 06:30:14;;;;;;;18.65;4.10;;;;;;;17.71;37.84;101806.22;5032578;28;20460;-65
2022/08/08 06:32:58;;;;;;;15.77;4.15;;;;;;;17.72;37.71;101815.22;5031247;28;20392;-65
2022/08/08 06:35:30;;;;;;;10.55;3.75;;;;;;;17.72;37.49;101812.50;5030985;28;20042;-65
2022/08/08 06:38:20;;;;;;;13.30;3.67;;;;;;;17.90;37.45;101804.91;5030227;28;20500;-65
2022/08/08 06:41:02;;;;;;;10.00;3.25;;;;;;;18.01;37.12;101812.59;5031621;28;20422;-65
2022/08/08 06:43:36;;;;;;;11.80;3.88;;;;;;;18.12;37.13;101813.19;5024403;28;20065;-66
2022/08/08 06:46:04;;;;;;;11.57;3.13;;;;;;;18.15;37.64;101810.97;5031008;28;20068;-65
2022/08/08 06:48:35;;;;;;;14.10;3.47;;;;;;;18.34;37.59;101811.47;5030014;28;20045;-65
2022/08/08 06:51:04;;;;;;;17.77;4.47;;;;;;;18.50;36.63;101817.59;5031818;28;20053;-65
2022/08/08 06:53:34;;;;;;;12.52;3.90;;;;;;;18.58;36.46;101816.66;5032104;28;20051;-65
2022/08/08 06:56:16;;;;;;;10.57;3.50;;;;;;;18.88;35.71;101822.94;5031996;28;20103;-65
2022/08/08 06:58:48;;;;;;;15.20;3.85;;;;;;;18.99;35.59;101817.03;5030960;28;20072;-65
2022/08/08 07:01:16;;;;;;;14.00;3.42;;;;;;;19.24;34.46;101825.75;5032943;28;20045;-65
2022/08/08 07:04:14;;;;;;;7.22;3.25;;;;;;;19.46;33.73;101817.59;5031869;28;20045;-66
2022/08/08 07:07:02;;;;;;;8.85;3.30;;;;;;;19.80;33.10;101816.09;5031157;28;20045;-66
2022/08/08 07:09:41;;;;;;;11.43;3.35;;;;;;;20.05;32.21;101820.09;5032187;28;20508;-65
2022/08/08 07:12:41;;;;;;;10.95;3.38;;;;;;;20.14;31.94;101818.94;5030646;28;20095;-64
2022/08/08 07:15:14;;;;;;;11.38;3.30;;;;;;;20.49;31.55;101818.13;5030798;28;20049;-66
2022/08/08 07:18:04;;;;;;;10.27;3.38;;;;;;;20.67;31.25;101821.22;5031248;28;20132;-66
2022/08/08 07:20:56;;;;;;;13.38;3.40;;;;;;;21.11;30.68;101823.56;5031895;28;20046;-67
2022/08/08 07:23:29;;;;;;;13.35;3.78;;;;;;;21.45;30.08;101823.66;5026487;28;20053;-67
2022/08/08 07:26:20;;;;;;;10.15;3.35;;;;;;;21.34;29.76;101825.09;5033030;28;20500;-67
2022/08/08 07:28:57;;;;;;;12.48;2.90;;;;;;;21.74;29.18;101825.22;5031875;28;20130;-65
2022/08/08 07:31:31;;;;;;;7.85;2.72;;;;;;;22.14;28.83;101822.53;5031674;28;20480;-67
2022/08/08 07:34:02;;;;;;;11.27;3.55;;;;;;;22.57;29.04;101825.66;5032710;28;20048;-67
2022/08/08 07:36:35;;;;;;;12.80;3.53;;;;;;;23.08;27.70;101826.75;5032062;28;20497;-66
2022/08/08 07:39:02;;;;;;;13.00;3.67;;;;;;;23.54;26.89;101823.81;5031566;28;20091;-67
2022/08/08 07:41:30;;;;;;;9.80;3.38;;;;;;;24.00;26.09;101828.16;5031649;28;20069;-67
2022/08/08 07:44:18;;;;;;;10.68;3.80;;;;;;;24.16;26.38;101827.59;5031985;28;20037;-66
2022/08/08 07:47:04;;;;;;;7.22;2.97;;;;;;;24.43;25.00;101830.94;5031731;28;20052;-66
2022/08/08 07:49:31;;;;;;;9.95;3.38;;;;;;;24.46;26.06;101826.91;5030576;28;20470;-67
2022/08/08 07:52:01;;;;;;;13.50;3.47;;;;;;;24.15;25.42;101830.56;5030888;28;20496;-66
2022/08/08 07:54:36;;;;;;;13.48;3.92;;;;;;;24.27;25.77;101836.16;5031453;28;20073;-66
2022/08/08 07:57:15;;;;;;;14.85;3.20;;;;;;;24.37;25.99;101833.72;5030176;28;20053;-67
2022/08/08 08:00:13;;;;;;;12.82;3.33;;;;;;;24.28;25.88;101835.09;5031196;28;20053;-66
2022/08/08 08:02:45;;;;;;;8.75;2.97;;;;;;;24.31;25.87;101842.88;5031701;28;20053;-66
2022/08/08 08:05:25;;;;;;;10.35;3.03;;;;;;;24.58;25.56;101840.75;5030913;28;20383;-66
2022/08/08 08:08:05;;;;;;;16.58;3.63;;;;;;;24.43;24.63;101844.66;5025557;28;20049;-67
2022/08/08 08:10:35;;;;;;;18.05;2.92;;;;;;;23.79;25.39;101844.97;5030680;28;20128;-66
2022/08/08 08:13:40;;;;;;;9.60;3.17;;;;;;;24.12;26.14;101847.44;5030213;28;20049;-67
2022/08/08 08:16:29;;;;;;;7.40;2.88;;;;;;;24.70;24.61;101843.56;5033405;28;20049;-67
2022/08/08 08:19:04;;;;;;;12.50;3.05;;;;;;;24.80;24.54;101841.13;5034445;28;20107;-65
2022/08/08 08:21:43;;;;;;;8.60;2.65;;;;;;;25.11;24.47;101845.66;5035122;28;20084;-66
2022/08/08 08:24:24;;;;;;;8.32;3.38;;;;;;;25.22;24.28;101841.28;5033872;28;20041;-65
2022/08/08 08:26:58;;;;;;;11.38;2.95;;;;;;;25.68;23.12;101839.81;5034905;28;20478;-65
2022/08/08 08:29:28;;;;;;;10.68;2.80;;;;;;;25.54;23.76;101828.16;5033606;28;20049;-65
2022/08/08 08:31:56;;;;;;;7.32;2.78;;;;;;;25.04;24.81;101834.75;5029921;28;20057;-65
2022/08/08 08:34:25;;;;;;;18.38;2.72;;;;;;;25.68;23.81;101840.66;5031363;28;20504;-64
2022/08/08 08:36:59;;;;;;;5.90;2.63;;;;;;;25.51;23.54;101842.34;5032993;28;20060;-65
2022/08/08 08:39:29;;;;;;;9.60;2.80;;;;;;;25.35;24.36;101841.13;5033386;28;20045;-65
2022/08/08 08:42:17;;;;;;;4.00;2.70;;;;;;;25.11;24.51;101851.97;5033548;28;20045;-65
2022/08/08 08:45:05;;;;;;;9.52;2.75;;;;;;;24.89;24.25;101848.84;5033423;28;20053;-65
2022/08/08 08:47:50;;;;;;;6.15;2.40;;;;;;;25.12;24.16;101845.41;5032058;28;20408;-66
2022/08/08 08:50:21;;;;;;;4.85;2.28;;;;;;;25.27;23.70;101855.16;5033774;28;20061;-66
2022/08/08 08:53:08;;;;;;;10.63;2.30;;;;;;;25.41;23.60;101842.06;5034900;28;20065;-66
2022/08/08 08:55:55;;;;;;;6.05;2.30;;;;;;;27.13;20.41;101841.91;5033342;28;20049;-66
2022/08/08 08:58:38;;;;;;;7.32;2.15;;;;;;;26.22;20.88;101832.44;5033250;28;20041;-66
2022/08/08 09:01:09;;;;;;;6.32;2.33;;;;;;;25.89;21.73;101842.03;5032772;28;20045;-66
2022/08/08 09:03:42;;;;;;;10.52;2.45;;;;;;;25.87;21.55;101846.94;5033397;28;20064;-66
2022/08/08 09:06:24;;;;;;;6.38;2.15;;;;;;;26.43;21.38;101845.59;5033172;28;20458;-65
2022/08/08 09:09:20;;;;;;;5.40;2.20;;;;;;;26.36;21.10;101841.28;5032014;28;20091;-65
2022/08/08 09:12:08;;;;;;;15.95;2.50;;;;;;;26.82;21.24;101840.41;5026775;28;20048;-65
2022/08/08 09:14:37;;;;;;;7.68;1.90;;;;;;;26.81;20.16;101844.25;5033968;28;20055;-65
2022/08/08 09:17:12;;;;;;;4.55;1.92;;;;;;;26.40;21.40;101840.56;5033364;28;20140;-65
2022/08/08 09:19:45;;;;;;;10.90;2.10;;;;;;;25.82;21.81;101838.53;5033677;28;20108;-66
2022/08/08 09:22:33;;;;;;;7.13;2.20;;;;;;;25.17;21.83;101841.16;5034181;28;20052;-65
2022/08/08 09:25:03;;;;;;;8.55;2.47;;;;;;;24.65;23.10;101834.13;5033153;28;20412;-66
2022/08/08 09:27:30;;;;;;;5.35;1.83;;;;;;;25.61;21.58;101837.16;5034022;28;20115;-66
2022/08/08 09:30:17;;;;;;;7.88;2.30;;;;;;;25.74;22.63;101831.47;5033266;28;20060;-65
2022/08/08 09:32:52;;;;;;;;;;;;;;;26.17;21.77;101832.25;5034043;28;20140;-66
2022/08/08 09:35:44;;;;;;;6.95;2.10;;;;;;;26.41;20.54;101833.97;5032387;28;20418;-66
2022/08/08 09:38:29;;;;;;;3.35;2.40;;;;;;;25.79;22.81;101825.25;5033725;28;20053;-66
2022/08/08 09:41:04;;;;;;;8.32;2.22;;;;;;;25.38;21.57;101824.19;5026967;28;20041;-66
2022/08/08 09:43:38;;;;;;;4.15;2.53;;;;;;;26.66;20.24;101827.41;5032630;28;20076;-66
2022/08/08 09:46:28;;;;;;;6.05;2.47;;;;;;;26.88;20.19;101830.38;5033501;28;20507;-65
2022/08/08 09:48:57;;;;;;;5.53;2.22;;;;;;;25.65;21.98;101829.28;5034028;28;20045;-65
2022/08/08 09:51:54;;;;;;;4.85;1.90;;;;;;;27.11;19.93;101826.72;5031751;28;20041;-65
2022/08/08 09:54:42;;;;;;;6.68;1.90;;;;;;;26.39;20.65;101825.13;5033300;28;20180;-64
2022/08/08 09:57:11;;;;;;;7.63;2.10;;;;;;;26.87;19.50;101821.28;5032514;28;20049;-65
2022/08/08 09:59:43;;;;;;;6.78;2.00;;;;;;;27.33;19.52;101827.72;5032522;28;20083;-64
2022/08/08 10:02:35;;;;;;;4.07;1.88;;;;;;;26.96;20.06;101824.47;5032661;28;20056;-64
2022/08/08 10:05:08;;;;;;;4.03;2.03;;;;;;;26.31;20.46;101820.84;5032801;28;20072;-65
2022/08/08 10:07:58;;;;;;;6.18;2.03;;;;;;;27.00;20.56;101821.00;5026729;28;20045;-66
2022/08/08 10:10:32;;;;;;;8.20;2.50;;;;;;;27.43;20.40;101821.59;5031523;28;20449;-64
2022/08/08 10:13:23;;;;;;;9.75;2.40;;;;;;;27.20;19.73;101825.22;5024298;28;20125;-64
2022/08/08 10:16:00;;;;;;;8.55;2.55;;;;;;;26.48;20.46;101826.47;5031083;28;20049;-65
2022/08/08 10:18:34;;;;;;;9.23;1.90;;;;;;;25.91;22.48;101820.63;5031950;28;20052;-65
2022/08/08 10:21:03;;;;;;;9.35;2.30;;;;;;;25.91;22.15;101814.31;5031836;28;20041;-65
2022/08/08 10:23:50;;;;;;;4.38;1.80;;;;;;;25.29;23.35;101811.81;5031455;28;20477;-66
2022/08/08 10:26:30;;;;;;;4.88;2.03;;;;;;;25.61;22.93;101813.28;5029906;28;20084;-66
2022/08/08 10:29:35;;;;;;;6.72;1.83;;;;;;;25.72;22.94;101808.03;5031552;28;20045;-66
2022/08/08 10:32:36;;;;;;;4.40;1.83;;;;;;;25.58;22.53;101812.88;5030854;28;20053;-65
2022/08/08 10:35:13;;;;;;;6.70;2.05;;;;;;;25.74;22.49;101812.25;5031139;28;20069;-65
2022/08/08 10:38:02;;;;;;;9.55;2.45;;;;;;;25.55;21.99;101805.97;5030115;28;20393;-66
2022/08/08 10:40:31;;;;;;;6.43;2.15;;;;;;;25.56;21.24;101804.88;5031983;28;20382;-65
2022/08/08 10:43:02;;;;;;;9.98;1.95;;;;;;;25.25;23.19;101796.88;5031588;28;20050;-65
2022/08/08 10:45:41;;;;;;;3.50;1.83;;;;;;;24.89;23.75;101804.09;5031513;28;20378;-65
2022/08/08 10:48:33;;;;;;;6.10;2.05;;;;;;;25.22;23.09;101794.59;5032324;28;20049;-65
2022/08/08 10:51:21;;;;;;;2.92;2.00;;;;;;;24.68;24.02;101800.75;5031634;28;20049;-66
2022/08/08 10:53:51;;;;;;;4.47;2.20;;;;;;;24.88;23.97;101797.75;5031224;28;20097;-65
2022/08/08 10:56:23;;;;;;;3.95;1.85;;;;;;;24.54;24.35;101801.97;5032156;28;20049;-65
2022/08/08 10:59:08;;;;;;;6.07;2.22;;;;;;;24.05;24.14;101798.16;5030668;28;20042;-65
2022/08/08 11:01:38;;;;;;;4.75;2.28;;;;;;;24.68;22.98;101799.88;5037556;28;20435;-65
2022/08/08 11:04:07;;;;;;;2.58;1.98;;;;;;;24.64;23.55;101791.25;5030694;28;20045;-65
2022/08/08 11:06:37;;;;;;;5.47;2.22;;;;;;;24.97;23.50;101790.03;5032305;28;20120;-66
2022/08/08 11:09:13;;;;;;;16.45;2.20;;;;;;;25.64;22.36;101791.91;5030227;28;20132;-66
2022/08/08 11:11:49;;;;;;;7.28;2.03;;;;;;;25.81;21.35;101790.97;5031413;28;20489;-65
2022/08/08 11:14:47;;;;;;;9.45;2.30;;;;;;;26.25;21.01;101793.44;5031474;28;20049;-66
2022/08/08 11:17:14;;;;;;;6.30;2.28;;;;;;;26.74;20.65;101793.97;5030618;28;20045;-66
2022/08/08 11:19:42;;;;;;;7.95;3.05;;;;;;;26.53;20.62;101799.03;5030550;28;20056;-65
2022/08/08 11:22:23;;;;;;;10.27;2.60;;;;;;;26.00;21.48;101799.97;5030362;28;20053;-65
2022/08/08 11:25:03;;;;;;;6.85;2.08;;;;;;;26.58;19.97;101792.78;5031384;28;20478;-65
2022/08/08 11:27:45;;;;;;;3.60;2.20;;;;;;;26.45;20.54;101796.66;5021619;28;20045;-66
2022/08/08 11:30:14;;;;;;;6.05;2.15;;;;;;;26.67;21.15;101785.03;5031508;28;20048;-66
2022/08/08 11:32:55;;;;;;;8.27;2.10;;;;;;;26.19;22.06;101794.41;5032032;28;20053;-66
2022/08/08 11:35:24;;;;;;;7.43;2.15;;;;;;;25.25;23.27;101788.66;5030350;28;20427;-66
2022/08/08 11:38:08;;;;;;;4.13;1.90;;;;;;;25.88;22.36;101790.03;5031403;28;20062;-66
2022/08/08 11:40:55;;;;;;;8.65;2.40;;;;;;;25.59;22.45;101787.97;5029953;28;20128;-65
2022/08/08 11:43:26;;;;;;;4.70;2.20;;;;;;;24.73;23.97;101794.56;5031307;28;20429;-65
2022/08/08 11:46:07;;;;;;;3.88;1.95;;;;;;;24.95;23.57;101794.06;5031214;28;20483;-65
2022/08/08 11:48:44;;;;;;;9.38;3.05;;;;;;;26.27;21.58;101786.63;5032041;28;20124;-65
2022/08/08 11:51:17;;;;;;;7.72;2.28;;;;;;;26.37;21.58;101787.94;5031351;28;20057;-65
2022/08/08 11:54:05;;;;;;;2.70;1.83;;;;;;;26.85;21.19;101784.88;5031422;28;20049;-66
2022/08/08 11:56:52;;;;;;;6.45;1.88;;;;;;;26.54;21.42;101788.88;5031013;28;20059;-65
2022/08/08 11:59:31;;;;;;;6.15;2.30;;;;;;;26.30;21.79;101788.06;5030642;28;20045;-66
2022/08/08 12:02:17;;;;;;;4.55;2.10;;;;;;;26.14;21.22;101789.59;5031429;28;20377;-66
2022/08/08 12:05:07;;;;;;;6.28;1.63;;;;;;;25.77;22.48;101789.78;5031233;28;20393;-66
2022/08/08 12:07:50;;;;;;;4.38;2.47;;;;;;;25.50;22.20;101781.06;5032266;28;20120;-66
2022/08/08 12:10:22;;;;;;;5.05;2.50;;;;;;;25.49;21.98;101776.66;5032114;28;20107;-66
2022/08/08 12:12:58;;;;;;;5.72;2.15;;;;;;;24.99;22.06;101781.56;5031443;28;20049;-66
2022/08/08 12:15:37;;;;;;;5.18;2.28;;;;;;;24.53;23.42;101774.75;5030924;28;20045;-66
2022/08/08 12:18:15;;;;;;;5.88;2.33;;;;;;;24.59;23.95;101773.81;5030965;28;20116;-66
2022/08/08 12:20:51;;;;;;;5.88;2.25;;;;;;;24.63;23.11;101778.63;5030977;28;20046;-66
2022/08/08 12:23:31;;;;;;;7.07;2.15;;;;;;;24.19;23.38;101783.25;5030356;28;20041;-66
2022/08/08 12:26:11;;;;;;;9.20;2.00;;;;;;;24.07;23.66;101774.13;5032150;28;20539;-66
2022/08/08 12:28:57;;;;;;;8.77;2.58;;;;;;;24.33;23.29;101774.91;5031711;28;20046;-66
2022/08/08 12:31:33;;;;;;;8.27;2.47;;;;;;;24.43;23.22;101773.34;5029630;28;20046;-66
2022/08/08 12:34:34;;;;;;;6.25;2.40;;;;;;;24.52;22.70;101771.16;5015102;28;20049;-67
2022/08/08 12:37:07;;;;;;;8.15;2.25;;;;;;;24.53;23.18;101778.31;5031130;28;20042;-66